Terminal Aerodrome Forecast
Issued by NWS

Home | Current Version | Previous Version | Text Only | Print | Product List | Glossary Off
Versions: 1 2 3 4 5 6 7 8 9 10 11 12 13 14 15 16 17 18 19 20 21 22

000
FTUS43 KMPX 202200 AAC
TAFAXN
TAF AMD
KAXN 202239Z 2023/2118 19011G16KT P6SM SCT030 OVC150
      TEMPO 2102/2103 3SM -TSRA BKN035CB
     FM210400 19008KT P6SM SCT080 BKN200
      TEMPO 2109/2113 4SM BR
     FM211400 16008KT 6SM HZ SCT060 SCT150=

USA.gov is the U.S. government's official web portal to all federal, state and local government web resources and services.